• Join FlightAware (Why Join?)
  • Login
  • US Flag 
01:24PM EDT


 

Airport Tracker/Info


-or-


 

Live Flight TrackerFlight Track Log ✈ JAS794 ✈ 16-May-2013 ✈ KSFO - KBOS

Flight Track Log - Related Links

Times and Time Zones

All times are in EDT time to prevent confusion due to time zone crossing. See the JAS794 flight status page for this flight to view local times or setup timezone preferences in your user account.

Time Position Orientation Groundspeed Altitude Reporting Facility
EDT Latitude Longitude Course Direction KTS MPH feet Rate Location/Type
07:24PM 37.6500 -122.3833 58° Northeast 174 200 2,000  Level Northern Cal TRACON
07:25PM 37.6833 -122.3167 58° Northeast 284 327 5,100 3,420 Climbing Northern Cal TRACON
07:26PM 37.7164 -122.2669 50° Northeast 279 321 8,300 3,600 Climbing Oakland Center
07:27PM 37.7825 -122.2064 36° Northeast 294 338 11,800 3,480 Climbing Oakland Center
07:28PM 37.8722 -122.1186 38° Northeast 338 389 15,500 2,880 Climbing Oakland Center
07:29PM 37.9553 -122.0367 38° Northeast 369 425 17,800 2,400 Climbing Oakland Center
07:30PM 38.0453 -121.9475 38° Northeast 402 463 20,400 2,640 Climbing Oakland Center
07:31PM 38.1367 -121.8578 38° Northeast 416 479 23,300 2,460 Climbing Oakland Center
07:32PM 38.2297 -121.7667 38° Northeast 423 487 25,500 1,920 Climbing Oakland Center
07:33PM 38.3247 -121.6706 38° Northeast 437 503 27,300 1,620 Climbing Oakland Center
07:34PM 38.4297 -121.5653 38° Northeast 461 531 28,900 1,380 Climbing Oakland Center
07:35PM 38.5133 -121.4361 50° Northeast 488 562 30,200 1,500 Climbing Oakland Center
07:36PM 38.6111 -121.2667 54° Northeast 496 571 32,000 1,680 Climbing Oakland Center
07:37PM 38.6883 -121.1350 53° Northeast 499 574 33,700 1,620 Climbing Oakland Center
07:38PM 38.7703 -120.9931 53° Northeast 496 571 35,400 1,560 Climbing Oakland Center
07:39PM 38.8519 -120.8514 53° Northeast 493 567 36,900 1,380 Climbing Oakland Center
07:40PM 38.9328 -120.7111 53° Northeast 491 565 38,300 1,440 Climbing Oakland Center
07:41PM 39.0122 -120.5761 53° Northeast 479 551 39,900 1,020 Climbing Oakland Center
07:42PM 39.1047 -120.4125 54° Northeast 472 543 40,500 480 Climbing Oakland Center
07:43PM 39.1842 -120.2736 54° Northeast 477 549 41,000 240 Climbing Oakland Center
07:44PM 39.2367 -120.1511 61° Northeast 484 557 41,000  Level Oakland Center
07:45PM 39.3228 -119.9522 61° Northeast 501 577 41,000  Level Oakland Center
07:46PM 39.3925 -119.7928 60° Northeast 507 583 41,000  Level Oakland Center
07:47PM 39.4603 -119.6317 61° Northeast 509 586 41,000  Level Oakland Center
07:48PM 39.5289 -119.4714 61° Northeast 507 583 41,000  Level Oakland Center
07:49PM 39.5969 -119.3106 61° Northeast 507 583 41,000  Level Oakland Center
07:50PM 39.6656 -119.1489 61° Northeast 506 582 41,000  Level Oakland Center
07:51PM 39.7344 -118.9853 61° Northeast 510 587 41,000  Level Oakland Center
07:52PM 39.8036 -118.8219 61° Northeast 510 587 41,000  Level Oakland Center
07:53PM 39.8714 -118.6594 61° Northeast 507 583 41,000  Level Oakland Center
07:54PM 39.9381 -118.4981 62° Northeast 504 580 41,000  Level Oakland Center
07:55PM 40.0047 -118.3364 62° Northeast 505 581 41,000  Level Oakland Center
07:56PM 40.0708 -118.1742 62° Northeast 504 580 41,000  Level Oakland Center
07:57PM 40.1489 -117.9806 62° Northeast 502 578 41,000  Level Oakland Center
07:58PM 40.2153 -117.8189 62° Northeast 504 580 41,000  Level Oakland Center
07:59PM 40.2564 -117.7186 62° Northeast 504 580 41,000  Level Salt Lake Center
08:00PM 40.3186 -117.5628 62° Northeast 504 580 41,000  Level Salt Lake Center
08:01PM 40.3919 -117.3814 62° Northeast 502 578 41,000  Level Salt Lake Center
08:02PM 40.4542 -117.2250 62° Northeast 502 578 41,000  Level Salt Lake Center
08:03PM 40.5169 -117.0689 62° Northeast 500 575 41,000  Level Salt Lake Center
08:04PM 40.5894 -116.8817 63° Northeast 504 580 41,000  Level Salt Lake Center
08:05PM 40.6522 -116.7222 63° Northeast 506 582 41,000  Level Salt Lake Center
08:06PM 40.7133 -116.5650 63° Northeast 502 578 41,000  Level Salt Lake Center
08:07PM 40.7836 -116.3817 63° Northeast 500 575 41,000  Level Salt Lake Center
08:08PM 40.8428 -116.2239 64° Northeast 501 577 41,000  Level Salt Lake Center
08:09PM 40.9133 -116.0403 63° Northeast 501 577 41,000  Level Salt Lake Center
08:10PM 40.9742 -115.8836 63° Northeast 501 577 41,000  Level Salt Lake Center
08:11PM 41.0436 -115.6989 63° Northeast 501 577 41,000  Level Salt Lake Center
08:13PM 41.1028 -115.5392 64° Northeast 503 579 41,000  Level Salt Lake Center
08:14PM 41.1631 -115.3797 63° Northeast 504 580 41,000  Level Salt Lake Center
08:15PM 41.2317 -115.1947 64° Northeast 502 578 41,000  Level Salt Lake Center
08:16PM 41.2911 -115.0356 64° Northeast 501 577 41,000  Level Salt Lake Center
08:17PM 41.3589 -114.8492 64° Northeast 500 575 41,000  Level Salt Lake Center
08:18PM 41.4131 -114.6992 64° Northeast 501 577 41,000  Level Salt Lake Center
08:19PM 41.4856 -114.4994 64° Northeast 499 574 41,000  Level Salt Lake Center
08:20PM 41.5467 -114.3339 64° Northeast 498 573 41,000  Level Salt Lake Center
08:21PM 41.6047 -114.1683 65° Northeast 493 567 41,000  Level Salt Lake Center
08:22PM 41.6636 -114.0014 65° Northeast 497 572 41,000 -60 Level Salt Lake Center
08:23PM 41.7222 -113.8339 65° Northeast 498 573 40,900  Descending Salt Lake Center
08:24PM 41.7825 -113.6653 64° Northeast 500 575 41,000  Climbing Salt Lake Center
08:25PM 41.8414 -113.4969 65° Northeast 498 573 41,000  Level Salt Lake Center
08:26PM 41.9125 -113.2956 65° Northeast 497 572 41,000  Level Salt Lake Center
08:27PM 41.9692 -113.1258 66° East 498 573 41,000  Level Salt Lake Center
08:28PM 42.0275 -112.9578 65° Northeast 497 572 41,000  Level Salt Lake Center
08:29PM 42.0864 -112.7869 65° Northeast 501 577 41,000  Level Salt Lake Center
08:30PM 42.1439 -112.6178 65° Northeast 499 574 41,000  Level Salt Lake Center
08:31PM 42.2044 -112.4506 64° Northeast 496 571 41,000  Level Salt Lake Center
08:32PM 42.2956 -112.3081 49° Northeast 501 577 41,000  Level Salt Lake Center
08:33PM 42.3878 -112.1678 48° Northeast 499 574 41,000  Level Salt Lake Center
08:34PM 42.4950 -111.9981 49° Northeast 497 572 41,000  Level Salt Lake Center
08:35PM 42.5536 -111.8272 65° Northeast 500 575 41,000  Level Salt Lake Center
08:36PM 42.6100 -111.6531 66° East 503 579 41,000  Level Salt Lake Center
08:37PM 42.6644 -111.4789 67° East 502 578 41,000  Level Salt Lake Center
08:38PM 42.7203 -111.3083 66° East 503 579 41,000  Level Salt Lake Center
08:39PM 42.7811 -111.1117 67° East 506 582 41,000  Level Salt Lake Center
08:40PM 42.8325 -110.9450 67° East 502 578 41,000  Level Salt Lake Center
08:41PM 42.8911 -110.7458 68° East 507 583 41,000  Level Salt Lake Center
08:42PM 42.9397 -110.5594 70° East 499 574 41,000  Level Salt Lake Center
08:43PM 42.9875 -110.3778 70° East 501 577 41,000  Level Salt Lake Center
08:44PM 43.0336 -110.2050 70° East 505 581 41,000  Level Salt Lake Center
08:45PM 43.0858 -110.0028 70° East 506 582 41,000  Level Salt Lake Center
08:46PM 43.1319 -109.8264 70° East 508 585 41,000  Level Salt Lake Center
08:48PM 43.1767 -109.6542 70° East 504 580 41,000  Level Salt Lake Center
08:49PM 43.2281 -109.4511 71° East 504 580 41,000  Level Salt Lake Center
08:50PM 43.2714 -109.2783 71° East 503 579 41,000  Level Salt Lake Center
08:51PM 43.3217 -109.0769 71° East 501 577 41,000  Level Salt Lake Center
08:52PM 43.3656 -108.9019 71° East 507 583 41,000  Level Salt Lake Center
08:53PM 43.4156 -108.6989 71° East 503 579 41,100  Climbing Salt Lake Center
08:54PM 43.4586 -108.5256 71° East 502 578 41,000 -60 Descending Salt Lake Center
08:55PM 43.5069 -108.3222 72° East 503 579 41,000  Level Salt Lake Center
08:56PM 43.5489 -108.1500 71° East 500 575 41,000  Level Salt Lake Center
08:57PM 43.5900 -107.9758 72° East 499 574 41,000  Level Salt Lake Center
08:58PM 43.6381 -107.7728 72° East 501 577 41,000  Level Salt Lake Center
08:59PM 43.6792 -107.5981 72° East 502 578 41,000  Level Salt Lake Center
09:00PM 43.7264 -107.3931 72° East 505 581 41,000  Level Salt Lake Center
09:01PM 43.7644 -107.2231 73° East 493 567 41,000  Level Salt Lake Center
09:02PM 43.8108 -107.0192 72° East 497 572 41,000  Level Salt Lake Center
09:03PM 43.8558 -106.8361 71° East 501 577 41,000  Level Salt Lake Center
09:04PM 43.8869 -106.7158 70° East 500 575 41,000  Level Denver Center
09:05PM 43.9286 -106.5414 72° East 500 575 41,000  Level Denver Center
09:06PM 43.9769 -106.3358 72° East 501 577 41,000  Level Denver Center
09:07PM 44.0200 -106.1583 71° East 506 582 41,000  Level Denver Center
09:08PM 44.0608 -105.9831 72° East 501 577 41,000  Level Denver Center
09:09PM 44.1086 -105.7783 72° East 498 573 41,000  Level Denver Center
09:10PM 44.1414 -105.6331 73° East 495 570 41,000  Level Denver Center
09:11PM 44.1944 -105.3994 72° East 494 568 41,000  Level Denver Center
09:12PM 44.2347 -105.2236 72° East 497 572 41,000  Level Denver Center
09:13PM 44.2800 -105.0211 73° East 492 566 41,000 300 Level Denver Center
09:14PM 44.3172 -104.8489 73° East 486 559 41,700 660 Climbing Denver Center
09:15PM 44.3553 -104.6786 73° East 481 554 42,400 600 Climbing Denver Center
09:16PM 44.3981 -104.4789 73° East 479 551 43,000 480 Climbing Denver Center
09:17PM 44.4350 -104.3094 73° East 478 550 43,500 480 Climbing Denver Center
09:18PM 44.4781 -104.1094 73° East 480 552 44,100 480 Climbing Denver Center
09:19PM 44.5006 -103.9353 80° East 477 549 44,500 300 Climbing Denver Center
09:20PM 44.5025 -103.7297 89° East 474 545 44,800 180 Climbing Denver Center
09:21PM 44.5028 -103.5528 90° East 474 545 44,900 60 Climbing Denver Center
09:22PM 44.5031 -103.3758 90° East 481 554 45,000  Climbing Denver Center
09:23PM 44.5050 -103.1486 89° East 486 559 45,000  Level Denver Center
09:24PM 44.5042 -102.9572 90° East 491 565 45,000  Level Denver Center
09:25PM 44.5031 -102.7614 90° East 499 574 45,000  Level Denver Center
09:26PM 44.5039 -102.5667 90° East 502 578 45,000  Level Denver Center
09:27PM 44.5047 -102.3733 90° East 501 577 45,100  Climbing Denver Center
09:28PM 44.5011 -102.1767 91° East 504 580 45,000 -60 Descending Denver Center
09:29PM 44.5011 -101.9814 90° East 504 580 45,000  Level Denver Center
09:30PM 44.5331 -101.7525 79° East 500 575 45,000  Level Denver Center
09:31PM 44.5547 -101.5597 81° East 501 577 45,000  Level Denver Center
09:32PM 44.5789 -101.3686 80° East 500 575 45,000  Level Denver Center
09:33PM 44.6017 -101.1767 80° East 500 575 45,000  Level Denver Center
09:35PM 44.6297 -100.9492 80° East 498 573 45,000  Level Minneapolis Center
09:36PM 44.6525 -100.7578 80° East 499 574 45,000  Level Minneapolis Center
09:37PM 44.6706 -100.6050 81° East 499 574 45,000  Level Minneapolis Center
09:38PM 44.6961 -100.3767 81° East 497 572 45,000  Level Minneapolis Center
09:39PM 44.7181 -100.1881 81° East 495 570 45,000  Level Minneapolis Center
09:40PM 44.7428 -99.9628 81° East 492 566 45,000  Level Minneapolis Center
09:41PM 44.7636 -99.7756 81° East 492 566 45,000  Level Minneapolis Center
09:42PM 44.7850 -99.5872 81° East 493 567 45,000  Level Minneapolis Center
09:43PM 44.8053 -99.3986 81° East 492 566 45,000  Level Minneapolis Center
09:44PM 44.8264 -99.2081 81° East 494 568 45,000  Level Minneapolis Center
09:45PM 44.8419 -99.0561 82° East 494 568 45,000  Level Minneapolis Center
09:46PM 44.8653 -98.8283 82° East 491 565 45,000  Level Minneapolis Center
09:47PM 44.8878 -98.5986 82° East 494 568 45,000  Level Minneapolis Center
09:48PM 44.9069 -98.4067 82° East 495 570 45,000  Level Minneapolis Center
09:49PM 44.9250 -98.2264 82° East 495 570 45,000  Level Minneapolis Center
09:50PM 44.9419 -98.0358 83° East 492 566 45,000  Level Minneapolis Center
09:51PM 44.9561 -97.8814 83° East 495 570 45,000  Level Minneapolis Center
09:52PM 44.9775 -97.6514 82° East 494 568 45,000  Level Minneapolis Center
09:53PM 44.9894 -97.4206 86° East 492 566 45,000  Level Minneapolis Center
09:54PM 44.9997 -97.2267 86° East 495 570 45,000  Level Minneapolis Center
09:55PM 45.0092 -97.0347 86° East 492 566 45,000  Level Minneapolis Center
09:56PM 45.0206 -96.8428 85° East 491 565 45,000  Level Minneapolis Center
09:57PM 45.0306 -96.6508 86° East 490 564 45,000  Level Minneapolis Center
09:58PM 45.0389 -96.4564 86° East 494 568 45,000  Level Minneapolis Center
09:59PM 45.0497 -96.2253 86° East 491 565 45,000  Level Minneapolis Center
10:00PM 45.0589 -96.0294 86° East 497 572 45,000  Level Minneapolis Center
10:02PM 45.0675 -95.8339 86° East 497 572 45,000  Level Minneapolis Center
10:03PM 45.0778 -95.6017 86° East 493 567 45,000  Level Minneapolis Center
10:04PM 45.0853 -95.4078 87° East 494 568 45,000  Level Minneapolis Center
10:05PM 45.0944 -95.1753 87° East 493 567 45,000  Level Minneapolis Center
10:06PM 45.1033 -94.9456 87° East 490 564 45,000  Level Minneapolis Center
10:07PM 45.1089 -94.7550 88° East 487 560 45,000  Level Minneapolis Center
10:08PM 45.1144 -94.5556 88° East 487 560 45,000  Level Minneapolis Center
10:09PM 45.1217 -94.3656 87° East 487 560 45,000  Level Minneapolis Center
10:10PM 45.1264 -94.1736 88° East 488 562 45,000  Level Minneapolis Center
10:11PM 45.1328 -93.9444 88° East 487 560 45,000  Level Minneapolis Center
10:12PM 45.1383 -93.7508 88° East 490 564 45,000  Level Minneapolis Center
10:13PM 45.1425 -93.5572 88° East 490 564 45,000  Level Minneapolis Center
10:14PM 45.1467 -93.3656 88° East 486 559 45,000  Level Minneapolis Center
10:15PM 45.1417 -93.1714 92° East 489 563 45,000  Level Minneapolis Center
10:16PM 45.1350 -92.9769 93° East 491 565 45,000  Level Minneapolis Center
10:17PM 45.1289 -92.7831 92° East 491 565 45,000  Level Minneapolis Center
10:18PM 45.1231 -92.5928 92° East 485 558 45,000  Level Minneapolis Center
10:19PM 45.1150 -92.3622 93° East 489 563 45,000  Level Minneapolis Center
10:20PM 45.1086 -92.1706 93° East 488 562 45,000  Level Minneapolis Center
10:21PM 45.1011 -91.9786 93° East 491 565 45,000  Level Minneapolis Center
10:22PM 45.0939 -91.7869 93° East 490 564 45,000  Level Minneapolis Center
10:23PM 45.0853 -91.5936 94° East 491 565 45,000  Level Minneapolis Center
10:24PM 45.0750 -91.4019 94° East 492 566 45,000  Level Minneapolis Center
10:26PM 45.0681 -91.2106 93° East 490 564 45,000  Level Minneapolis Center
10:27PM 45.0589 -91.0192 94° East 489 563 45,000  Level Minneapolis Center
10:28PM 45.0508 -90.8144 93° East 488 562 45,000  Level Minneapolis Center
10:29PM 45.0411 -90.6231 94° East 490 564 45,000  Level Minneapolis Center
10:30PM 45.0317 -90.4319 94° East 490 564 45,000  Level Minneapolis Center
10:31PM 45.0211 -90.2417 94° East 488 562 45,000  Level Minneapolis Center
10:32PM 45.0108 -90.0511 94° East 490 564 45,000  Level Minneapolis Center
10:33PM 44.9983 -89.8217 94° East 491 565 45,000  Level Minneapolis Center
10:34PM 44.9889 -89.6342 94° East 492 566 45,000  Level Minneapolis Center
10:35PM 44.9769 -89.4439 95° East 489 563 45,000  Level Minneapolis Center
10:36PM 44.9650 -89.2556 95° East 483 556 45,000  Level Minneapolis Center
10:37PM 44.9536 -89.0642 95° East 487 560 45,000  Level Minneapolis Center
10:38PM 44.9411 -88.8761 95° East 483 556 45,000  Level Minneapolis Center
10:39PM 44.9292 -88.6872 95° East 484 557 45,000  Level Minneapolis Center
10:40PM 44.9117 -88.4344 95° East 486 559 45,000  Level Minneapolis Center
10:41PM 44.8986 -88.2333 95° East 491 565 45,000  Level Minneapolis Center
10:42PM 44.8844 -88.0447 96° East 489 563 45,000 -60 Level Minneapolis Center
10:43PM 44.8700 -87.8497 96° East 496 571 44,900  Descending Minneapolis Center
10:44PM 44.8556 -87.6539 96° East 503 579 45,000  Climbing Minneapolis Center
10:45PM 44.8397 -87.4564 96° East 508 585 45,000 -60 Level Minneapolis Center
10:46PM 44.8236 -87.2653 97° East 496 571 44,900 -60 Descending Minneapolis Center
10:47PM 44.8092 -87.0800 96° East 481 554 44,900  Level Minneapolis Center
10:48PM 44.7942 -86.8936 96° East 480 552 45,000  Climbing Minneapolis Center
10:49PM 44.7769 -86.6917 97° East 485 558 45,000  Level Minneapolis Center
10:50PM 44.7603 -86.5017 97° East 489 563 45,000  Level Minneapolis Center
10:51PM 44.7439 -86.3103 97° East 492 566 45,000  Level Minneapolis Center
10:52PM 44.7275 -86.1186 97° East 493 567 45,000  Level Minneapolis Center
10:53PM 44.7136 -85.9639 97° East 496 571 45,000  Level Minneapolis Center
10:54PM 44.6925 -85.7317 97° East 498 573 45,000  Level Minneapolis Center
10:55PM 44.6739 -85.5350 98° East 495 570 45,000  Level Minneapolis Center
10:56PM 44.6556 -85.3436 98° East 497 572 45,000  Level Minneapolis Center
10:57PM 44.6336 -85.1139 98° East 497 572 45,000  Level Minneapolis Center
10:58PM 44.6147 -84.9233 98° East 495 570 45,000  Level Minneapolis Center
10:59PM 44.5958 -84.7333 98° East 494 568 45,000  Level Minneapolis Center
11:00PM 44.5758 -84.5442 98° East 492 566 45,000  Level Minneapolis Center
11:01PM 44.5553 -84.3528 99° East 495 570 45,000  Level Minneapolis Center
11:02PM 44.5358 -84.1631 98° East 494 568 45,000  Level Minneapolis Center
11:03PM 44.5156 -83.9733 98° East 495 570 45,000  Level Minneapolis Center
11:05PM 44.4950 -83.7831 99° East 495 570 45,000  Level Minneapolis Center
11:06PM 44.4739 -83.5928 99° East 495 570 45,000  Level Minneapolis Center
11:07PM 44.4461 -83.3653 100° East 496 571 45,000  Level Minneapolis Center
11:08PM 44.4000 -83.1831 109° East 496 571 45,000  Level Minneapolis Center
11:08PM 44.3500 -83.0833 125° Southeast 500 575 45,000  Level Toronto Center
11:09PM 44.3000 -82.9167 113° Southeast 500 575 45,000  Level Toronto Center
11:10PM 44.2333 -82.7333 117° Southeast 500 575 45,000  Level Toronto Center
11:11PM 44.2000 -82.5333 103° East 500 575 45,000  Level Toronto Center
11:12PM 44.1803 -82.4747 115° Southeast 497 572 45,000  Level Minneapolis Center
11:12PM 44.1333 -82.3667 121° Southeast 500 575 45,000  Level Toronto Center
11:13PM 44.0833 -82.2167 115° Southeast 500 575 45,000  Level Toronto Center
11:14PM 44.0167 -82.0167 115° Southeast 500 575 45,000  Level Toronto Center
11:15PM 43.9833 -81.8500 105° East 500 575 45,000  Level Toronto Center
11:16PM 43.9167 -81.6667 117° Southeast 500 575 45,000  Level Toronto Center
11:17PM 43.8833 -81.4833 104° East 500 575 45,000  Level Toronto Center
11:18PM 43.8500 -81.2667 102° East 500 575 45,000  Level Toronto Center
11:19PM 43.8333 -81.0833 97° East 500 575 45,000  Level Toronto Center
11:20PM 43.8000 -80.9000 104° East 510 587 45,000  Level Toronto Center
11:21PM 43.8000 -80.7167 90° East 510 587 45,000  Level Toronto Center
11:22PM 43.7667 -80.5333 104° East 510 587 45,000  Level Toronto Center
11:23PM 43.7500 -80.3333 97° East 510 587 45,000  Level Toronto Center
11:24PM 43.7167 -80.1333 103° East 510 587 45,000  Level Toronto Center
11:25PM 43.7000 -79.9333 97° East 510 587 45,000  Level Toronto Center
11:26PM 43.6667 -79.7500 104° East 510 587 45,000  Level Toronto Center
11:27PM 43.6500 -79.5667 97° East 510 587 45,000  Level Toronto Center
11:28PM 43.6167 -79.3500 102° East 510 587 45,000  Level Toronto Center
11:29PM 43.6000 -79.1667 97° East 500 575 45,000  Level Toronto Center
11:30PM 43.5833 -78.9833 97° East 510 587 45,000  Level Toronto Center
11:31PM 43.5500 -78.7833 103° East 510 587 45,000  Level Toronto Center
11:32PM 43.5167 -78.6000 104° East 510 587 45,000  Level Toronto Center
11:33PM 43.5056 -78.4539 96° East 502 578 45,000  Level Cleveland Center
11:34PM 43.4789 -78.2631 101° East 502 578 45,000  Level Cleveland Center
11:35PM 43.4500 -78.0697 102° East 507 583 45,000  Level Cleveland Center
11:36PM 43.4250 -77.8819 100° East 507 583 45,000  Level Cleveland Center
11:37PM 43.3975 -77.6919 101° East 507 583 45,000  Level Cleveland Center
11:39PM 43.3167 -77.2667 105° East 510 587 45,000  Level Toronto Center
11:40PM 43.2833 -77.0667 103° East 510 587 45,000  Level Toronto Center
11:41PM 43.2667 -76.8833 97° East 500 575 45,000  Level Toronto Center
11:42PM 43.2500 -76.7000 97° East 500 575 45,000  Level Toronto Center
11:43PM 43.2000 -76.5167 110° East 500 575 45,000  Level Toronto Center
11:44PM 43.1833 -76.3167 96° East 500 575 45,000  Level Toronto Center
11:45PM 43.1500 -76.1333 104° East 510 587 45,000  Level Toronto Center
11:46PM 43.1167 -75.9500 104° East 500 575 45,000  Level Toronto Center
11:47PM 43.0833 -75.7833 105° East 510 587 45,000  Level Toronto Center
11:48PM 43.0500 -75.6000 104° East 500 575 45,000  Level Toronto Center
11:49PM 43.0167 -75.3833 102° East 500 575 45,000  Level Toronto Center
11:50PM 43.0167 -75.2167 90° East 510 587 45,000  Level Toronto Center
11:51PM 42.9833 -75.0000 102° East 510 587 45,000  Level Toronto Center
11:52PM 42.9667 -74.8333 98° East 510 587 45,000  Level Toronto Center
11:53PM 42.9333 -74.6167 102° East 500 575 45,000  Level Toronto Center
11:54PM 42.9167 -74.4500 98° East 500 575 45,000  Level Toronto Center
11:54PM 42.9139 -74.4672 258° West 509 586 45,000 -180 Level Boston Center
11:55PM 42.8883 -74.2422 99° East 504 580 44,800 -900 Descending Boston Center
11:56PM 42.8600 -74.0575 102° East 504 580 43,200 -2,100 Descending Boston Center
11:57PM 42.8353 -73.8669 100° East 504 580 40,700 -2,460 Descending Boston Center
11:58PM 42.8106 -73.6797 100° East 509 586 38,300 -2,520 Descending Boston Center
11:59PM 42.7833 -73.4839 101° East 509 586 35,700 -2,640 Descending Boston Center
12:00AM 42.7558 -73.2828 100° East 520 598 33,100 -2,700 Descending Boston Center
12:01AM 42.7300 -73.0789 100° East 532 612 30,400 -2,760 Descending Boston Center
12:02AM 42.6956 -72.8525 102° East 548 631 27,600 -2,580 Descending Boston Center
12:03AM 42.6669 -72.6717 102° East 524 603 25,300 -2,400 Descending Boston Center
12:04AM 42.6422 -72.4994 101° East 485 558 22,800 -2,400 Descending Boston Center
12:05AM 42.6192 -72.3272 100° East 466 536 20,600 -2,160 Descending Boston Center
12:06AM 42.5897 -72.1750 105° East 461 531 18,500 -2,160 Descending Boston Center
12:07AM 42.5622 -72.0003 102° East 447 514 16,300 -1,740 Descending Boston Center
12:08AM 42.5428 -71.8597 101° East 428 493 15,100 -1,380 Descending Boston Center
12:09AM 42.5167 -71.6964 102° East 414 476 13,600 -1,320 Descending Boston Center
12:10AM 42.5000 -71.5667 100° East 359 413 12,500 -1,260 Descending KA90
12:11AM 42.4833 -71.4333 100° East 330 380 11,100 -1,500 Descending KA90
12:12AM 42.4833 -71.3167 90° East 326 375 9,600 -1,560 Descending KA90
12:13AM 42.4667 -71.2000 101° East 320 368 8,100 -1,500 Descending KA90
12:14AM 42.4500 -71.0833 101° East 314 361 6,600 -1,440 Descending KA90
12:15AM 42.4333 -70.9667 101° East 294 338 5,200 -1,500 Descending KA90
12:16AM 42.4167 -70.8667 103° East 277 319 3,700 -1,080 Descending KA90
12:17AM 42.3833 -70.7833 118° Southeast 245 282 3,100 -720 Descending KA90
12:18AM 42.3367 -70.8167 208° Southwest 147 169 2,300 -600 Descending Boston Center
12:19AM 42.3333 -70.8833 266° West 204 235 2,000 -780 Descending KA90
12:21AM 42.3333 -70.9500 270° West 157 181 800 14,220 Descending KA90
12:22AM 42.3294 -71.0556 267° West 150 173 45,000 22,860 Climbing Boston Center
12:24AM 42.3500 -71.0000 North  Level FlightAware Approximate